Time;durP1;ratioP1;P1;durP2;ratioP2;P2;SDS_P1;SDS_P2;PMS_P1;PMS_P2;Temp;Humidity;BMP_temperature;BMP_pressure;BME280_temperature;BME280_humidity;BME280_pressure;Samples;Min_cycle;Max_cycle;Signal;HPM_P1;HPM_P2
2022/07/07 00:02:19;;;;;;;12.00;10.90;;;;;;;-143.84;74.36;44993.84;5069567;28;20447;-76
2022/07/07 00:04:46;;;;;;;17.93;11.17;;;;;;;-143.84;74.40;44967.19;5069569;28;20996;-76
2022/07/07 00:07:14;;;;;;;11.70;10.50;;;;;;;-143.84;74.55;44976.72;5069359;28;20437;-76
2022/07/07 00:09:41;;;;;;;12.63;11.30;;;;;;;-143.84;74.81;45018.59;5069468;28;20444;-76
2022/07/07 00:12:09;;;;;;;11.80;10.80;;;;;;;-143.84;75.27;45007.19;5069330;28;20886;-76
2022/07/07 00:14:37;;;;;;;12.43;11.30;;;;;;;-143.84;75.18;44976.72;5069927;28;20444;-76
2022/07/07 00:17:04;;;;;;;13.43;12.23;;;;;;;-143.84;75.44;45007.19;5069602;28;20456;-76
2022/07/07 00:19:33;;;;;;;17.23;11.53;;;;;;;-143.84;75.69;45001.47;5069717;28;20441;-76
2022/07/07 00:22:00;;;;;;;12.43;11.27;;;;;;;-143.84;75.64;44997.66;5069379;28;20445;-76
2022/07/07 00:24:28;;;;;;;13.70;12.00;;;;;;;-143.84;75.92;44969.09;5069645;28;20455;-76
2022/07/07 00:26:55;;;;;;;13.10;11.70;;;;;;;-143.84;76.04;45003.38;5069441;28;20539;-76
2022/07/07 00:29:22;;;;;;;17.00;11.33;;;;;;;-143.84;76.04;45001.47;5069724;28;20437;-76
2022/07/07 00:31:49;;;;;;;12.23;10.80;;;;;;;-143.84;76.17;44984.31;5069275;28;20502;-76
2022/07/07 00:34:16;;;;;;;18.13;10.90;;;;;;;-143.84;76.26;44986.22;5069017;28;20507;-76
2022/07/07 00:36:45;;;;;;;14.53;11.63;;;;;;;-143.84;76.40;44969.09;5068536;28;20440;-76
2022/07/07 00:39:13;;;;;;;11.57;10.30;;;;;;;-143.84;76.75;45003.38;5068831;28;20502;-76
2022/07/07 00:41:40;;;;;;;12.60;11.43;;;;;;;-143.84;76.92;45001.47;5068921;28;20445;-76
2022/07/07 00:44:12;;;;;;;14.00;10.83;;;;;;;-143.84;77.00;45007.19;5068765;28;20440;-77
2022/07/07 00:46:45;;;;;;;13.07;11.77;;;;;;;-143.84;77.09;45026.22;5068546;28;20496;-75
2022/07/07 00:49:13;;;;;;;14.10;11.70;;;;;;;-143.84;76.92;45016.69;5068593;28;20825;-75
2022/07/07 00:51:41;;;;;;;17.63;12.27;;;;;;;-143.84;77.00;45001.47;5068673;28;20871;-75
2022/07/07 00:54:11;;;;;;;12.10;10.80;;;;;;;-143.84;77.60;45016.69;5068660;28;20441;-77
2022/07/07 00:56:39;;;;;;;13.97;12.43;;;;;;;-143.84;77.55;45016.69;5068593;28;20966;-75
2022/07/07 00:59:07;;;;;;;15.40;11.20;;;;;;;-143.84;77.84;44991.94;5068745;28;20452;-75
2022/07/07 01:01:37;;;;;;;16.57;12.30;;;;;;;-143.84;78.03;45003.38;5068479;28;20479;-75
2022/07/07 01:04:06;;;;;;;13.80;12.30;;;;;;;-143.84;78.04;44995.75;5068686;28;20445;-76
2022/07/07 01:06:33;;;;;;;21.10;12.13;;;;;;;-143.84;77.91;45010.97;5068355;28;20477;-76
2022/07/07 01:09:01;;;;;;;15.00;12.03;;;;;;;-143.84;78.39;44991.94;5068703;28;20452;-76
2022/07/07 01:11:45;;;;;;;13.80;12.40;;;;;;;-143.84;78.34;44980.53;5072166;28;20437;-76
2022/07/07 01:14:13;;;;;;;20.87;12.10;;;;;;;-143.84;79.04;44984.31;5072117;28;20456;-75
2022/07/07 01:16:40;;;;;;;16.77;12.50;;;;;;;-143.84;79.39;44978.63;5072061;28;20444;-75
2022/07/07 01:19:08;;;;;;;13.77;12.37;;;;;;;-143.84;79.68;45028.13;5072160;28;20444;-76
2022/07/07 01:21:44;;;;;;;14.13;12.73;;;;;;;-143.84;80.49;44988.13;5072282;28;21229;-75
2022/07/07 01:24:12;;;;;;;15.87;13.57;;;;;;;-143.84;80.95;44993.84;5071974;28;20926;-75
2022/07/07 01:26:40;;;;;;;17.33;13.13;;;;;;;-143.84;81.30;45007.19;5071845;28;20503;-75
2022/07/07 01:29:07;;;;;;;22.03;14.03;;;;;;;-143.84;81.97;45010.97;5072229;28;20511;-76
2022/07/07 01:31:35;;;;;;;17.00;14.77;;;;;;;-143.84;82.20;45003.38;5071560;28;20545;-75
2022/07/07 01:34:02;;;;;;;16.97;13.43;;;;;;;-143.84;82.47;45016.69;5071868;28;20437;-75
2022/07/07 01:36:29;;;;;;;27.00;15.37;;;;;;;-143.84;82.89;45005.28;5071692;28;20441;-76
2022/07/07 01:38:57;;;;;;;16.77;13.70;;;;;;;-143.84;83.04;44997.66;5071742;28;20498;-76
2022/07/07 01:41:25;;;;;;;20.63;14.87;;;;;;;-143.84;83.62;45005.28;5071627;28;20445;-76
2022/07/07 01:43:52;;;;;;;19.73;13.50;;;;;;;-143.84;83.72;45001.47;5071964;28;20872;-76
2022/07/07 01:46:19;;;;;;;25.57;15.17;;;;;;;-143.84;83.82;45016.69;5071863;28;20480;-76
2022/07/07 01:48:47;;;;;;;15.50;13.87;;;;;;;-143.84;84.29;45003.38;5071469;28;20942;-76
2022/07/07 01:51:14;;;;;;;17.30;14.60;;;;;;;-143.84;84.69;45010.97;5071690;28;20429;-76
2022/07/07 01:53:41;;;;;;;16.20;14.60;;;;;;;-143.84;84.73;45028.13;5071566;28;20455;-76
2022/07/07 01:56:08;;;;;;;16.43;14.87;;;;;;;-143.84;85.15;45007.19;5071563;28;20510;-76
2022/07/07 01:58:37;;;;;;;15.67;14.07;;;;;;;-143.84;85.15;45020.50;5071656;28;20502;-75
2022/07/07 02:01:04;;;;;;;18.23;15.40;;;;;;;-143.84;85.52;45035.75;5071346;28;20517;-76
2022/07/07 02:03:31;;;;;;;19.30;15.17;;;;;;;-143.84;85.55;45022.41;5071497;28;20835;-76
2022/07/07 02:05:58;;;;;;;20.47;14.80;;;;;;;-143.84;86.01;45031.94;5070981;28;20530;-76
2022/07/07 02:08:26;;;;;;;22.50;14.27;;;;;;;-143.84;86.39;45003.38;5070986;28;20974;-76
2022/07/07 02:13:40;;;;;;;24.87;14.20;;;;;;;-143.84;86.88;45022.41;5071114;28;20443;-76
2022/07/07 02:16:07;;;;;;;15.40;13.90;;;;;;;-143.84;86.79;45020.50;5071056;28;20495;-76
2022/07/07 02:18:36;;;;;;;18.10;12.83;;;;;;;-143.84;86.69;45028.13;5071035;28;20444;-76
2022/07/07 02:21:05;;;;;;;15.13;12.60;;;;;;;-143.84;86.71;45037.66;5070306;28;20440;-76
2022/07/07 02:23:32;;;;;;;18.33;13.53;;;;;;;-143.84;86.58;45022.41;5071153;28;20452;-76
2022/07/07 02:26:00;;;;;;;18.50;13.10;;;;;;;-143.84;86.62;45039.53;5070872;28;20487;-76
2022/07/07 02:28:28;;;;;;;20.70;12.47;;;;;;;-143.84;86.62;45014.78;5070658;28;20498;-76
2022/07/07 02:30:57;;;;;;;18.17;12.63;;;;;;;-143.84;86.62;45018.59;5070392;28;20485;-76
2022/07/07 02:33:25;;;;;;;23.87;12.13;;;;;;;-143.84;86.54;45003.38;5070629;28;20453;-76
2022/07/07 02:35:53;;;;;;;15.83;11.53;;;;;;;-143.84;86.46;45014.78;5070733;28;20507;-76
2022/07/07 02:38:22;;;;;;;20.10;12.73;;;;;;;-143.84;86.43;45018.59;5070465;28;20433;-76
2022/07/07 02:40:49;;;;;;;14.13;12.53;;;;;;;-143.84;86.63;45014.78;5070558;28;20816;-76
2022/07/07 02:43:17;;;;;;;15.47;12.23;;;;;;;-143.84;86.51;45041.44;5070654;28;20444;-76
2022/07/07 02:45:45;;;;;;;20.10;12.50;;;;;;;-143.84;86.46;45012.88;5070115;28;20955;-76
2022/07/07 02:48:16;;;;;;;16.53;11.47;;;;;;;-143.84;86.76;45003.38;5070822;28;20440;-76
2022/07/07 02:50:43;;;;;;;13.50;12.03;;;;;;;-143.84;86.79;45031.94;5070568;28;20962;-74
2022/07/07 02:53:11;;;;;;;16.70;12.23;;;;;;;-143.84;86.90;45018.59;5070246;28;20490;-74
2022/07/07 02:55:39;;;;;;;15.67;12.17;;;;;;;-143.84;86.98;45022.41;5070375;28;20445;-74
2022/07/07 02:58:08;;;;;;;14.40;11.53;;;;;;;-143.84;87.08;45010.97;5070183;28;20831;-74
2022/07/07 03:00:36;;;;;;;13.70;10.73;;;;;;;-143.84;86.91;45033.84;5069895;28;20497;-76
2022/07/07 03:03:05;;;;;;;13.60;11.00;;;;;;;-143.84;87.05;45014.78;5070269;28;20440;-75
2022/07/07 03:05:34;;;;;;;19.00;10.77;;;;;;;-143.84;87.00;45009.09;5070349;28;20433;-76
2022/07/07 03:08:01;;;;;;;16.73;10.97;;;;;;;-143.84;86.62;45003.38;5069853;28;20484;-77
2022/07/07 03:10:29;;;;;;;16.73;10.67;;;;;;;-143.84;86.55;45026.22;5069943;28;20448;-77
2022/07/07 03:12:56;;;;;;;15.13;11.27;;;;;;;-143.84;86.54;45077.63;5069902;28;20445;-76
2022/07/07 03:15:23;;;;;;;13.10;10.77;;;;;;;-143.84;86.28;45031.94;5069901;28;20436;-76
2022/07/07 03:17:52;;;;;;;16.93;10.87;;;;;;;-143.84;86.20;45030.03;5070397;28;20441;-76
2022/07/07 03:20:19;;;;;;;13.93;11.13;;;;;;;-143.84;86.25;45009.09;5072358;28;20444;-75
2022/07/07 03:22:48;;;;;;;12.73;11.10;;;;;;;-143.84;86.25;45033.84;5072362;28;20445;-73
2022/07/07 03:25:15;;;;;;;16.67;11.40;;;;;;;-143.84;86.14;45043.34;5071751;28;20515;-75
2022/07/07 03:27:42;;;;;;;20.60;12.30;;;;;;;-143.84;85.85;44995.75;5072017;28;21424;-75
2022/07/07 03:30:11;;;;;;;16.83;10.83;;;;;;;-143.84;86.14;45026.22;5070243;28;20951;-82
2022/07/07 03:32:38;;;;;;;19.70;11.00;;;;;;;-143.84;85.88;45018.59;5069027;28;20460;-74
2022/07/07 03:35:08;;;;;;;17.03;10.20;;;;;;;-143.84;85.42;45024.31;5069469;28;20484;-76
2022/07/07 03:37:35;;;;;;;15.63;11.40;;;;;;;-143.84;85.35;45016.69;5071599;28;20523;-76
2022/07/07 03:40:06;;;;;;;11.27;10.13;;;;;;;-143.84;84.95;45035.75;5071652;28;20429;-76
2022/07/07 03:42:33;;;;;;;13.90;10.23;;;;;;;-143.84;83.72;45056.69;5054043;28;20520;-76
2022/07/07 03:45:01;;;;;;;12.07;10.87;;;;;;;-143.84;82.61;45030.03;5072486;28;20479;-76
2022/07/07 03:47:28;;;;;;;11.00;9.73;;;;;;;-143.84;81.06;45031.94;5072168;28;20480;-75
2022/07/07 03:49:55;;;;;;;10.43;9.13;;;;;;;-143.84;79.19;45016.69;5072639;28;20452;-76
2022/07/07 03:52:23;;;;;;;11.53;8.97;;;;;;;-143.84;77.95;45009.09;5064668;28;20507;-76
2022/07/07 03:54:50;;;;;;;9.30;8.50;;;;;;;-143.84;76.52;45030.03;5072812;28;20429;-76
2022/07/07 03:57:19;;;;;;;9.77;8.77;;;;;;;-143.84;75.62;45031.94;5072021;28;20441;-75
2022/07/07 03:59:46;;;;;;;8.63;7.73;;;;;;;-143.84;74.80;44991.94;5071900;28;20465;-75
2022/07/07 04:02:13;;;;;;;8.73;7.83;;;;;;;-143.84;73.62;45010.97;5072358;28;20444;-75
2022/07/07 04:04:40;;;;;;;8.60;7.80;;;;;;;-143.84;72.48;45014.78;5072224;28;20429;-75
2022/07/07 04:07:07;;;;;;;8.83;8.00;;;;;;;-143.84;72.20;44988.13;5072346;28;21202;-75
2022/07/07 04:09:34;;;;;;;14.00;7.50;;;;;;;-143.84;71.14;44995.75;5072351;28;20509;-75
2022/07/07 04:12:02;;;;;;;9.43;8.20;;;;;;;-143.84;70.20;44999.56;5072211;28;20448;-76
2022/07/07 04:14:30;;;;;;;9.13;8.13;;;;;;;-143.84;69.51;44997.66;5072336;28;20424;-76
2022/07/07 04:16:57;;;;;;;13.13;7.90;;;;;;;-143.84;68.95;44984.31;5071653;28;20498;-76
2022/07/07 04:19:25;;;;;;;9.10;7.07;;;;;;;-143.84;68.91;44974.81;5072557;28;20829;-76
2022/07/07 04:21:52;;;;;;;7.43;6.83;;;;;;;-143.84;68.07;45003.38;5072291;28;20437;-76
2022/07/07 04:24:19;;;;;;;19.37;7.00;;;;;;;-143.84;67.04;44991.94;5071953;28;20444;-75
2022/07/07 04:26:46;;;;;;;9.57;6.37;;;;;;;-143.84;66.56;45003.38;5072448;28;20468;-75
2022/07/07 04:29:14;;;;;;;15.97;6.87;;;;;;;-143.84;65.48;44984.31;5071990;28;20437;-76
2022/07/07 04:31:44;;;;;;;7.00;6.30;;;;;;;-143.84;64.53;44995.75;5058937;28;20491;-76
2022/07/07 04:34:13;;;;;;;7.73;6.80;;;;;;;-143.84;63.34;44993.84;5051912;28;20529;-77
2022/07/07 04:36:41;;;;;;;9.73;6.80;;;;;;;-143.84;63.40;44959.56;5031183;28;20451;-78
2022/07/07 04:39:08;;;;;;;17.53;6.73;;;;;;;-143.84;62.71;44967.19;5029813;28;20485;-77
2022/07/07 04:41:36;;;;;;;19.03;5.87;;;;;;;-143.84;62.79;44980.53;5029626;28;20447;-77
2022/07/07 04:44:05;;;;;;;8.70;6.63;;;;;;;-143.84;62.91;44971.00;5030442;28;20434;-77
2022/07/07 04:46:32;;;;;;;12.33;6.80;;;;;;;-143.84;62.67;44991.94;5033609;28;20457;-78
2022/07/07 04:49:01;;;;;;;11.23;6.63;;;;;;;-143.84;62.69;44972.91;5041010;28;20449;-78
2022/07/07 04:51:29;;;;;;;6.60;5.87;;;;;;;-143.84;62.32;44953.88;5033905;28;21001;-77
2022/07/07 04:53:56;;;;;;;10.60;6.23;;;;;;;-143.84;61.19;44969.09;5033825;28;20469;-78
2022/07/07 04:56:24;;;;;;;8.57;5.37;;;;;;;-143.84;60.94;44984.31;5033633;28;20446;-78
2022/07/07 04:58:51;;;;;;;5.90;5.30;;;;;;;-143.84;60.11;44980.53;5033558;28;21003;-78
2022/07/07 05:01:19;;;;;;;6.30;5.80;;;;;;;-143.84;59.88;44965.28;5033224;28;20787;-77
2022/07/07 05:03:46;;;;;;;6.57;6.07;;;;;;;-143.84;59.56;44974.81;5033836;28;20496;-78
2022/07/07 05:06:15;;;;;;;19.67;6.67;;;;;;;-143.84;59.04;44974.81;5033376;28;20438;-78
2022/07/07 05:08:43;;;;;;;10.13;5.57;;;;;;;-143.84;58.97;44971.00;5033548;28;20991;-78
2022/07/07 05:11:10;;;;;;;10.80;5.37;;;;;;;-143.84;59.31;44969.09;5033502;28;20439;-77
2022/07/07 05:13:38;;;;;;;8.07;5.97;;;;;;;-143.84;58.10;44963.38;5033279;28;20454;-78
2022/07/07 05:16:06;;;;;;;7.03;4.97;;;;;;;-143.84;57.49;44965.28;5033201;28;20496;-78
2022/07/07 05:18:33;;;;;;;9.00;4.70;;;;;;;-143.84;57.85;44948.16;5033008;28;20522;-78
2022/07/07 05:21:01;;;;;;;11.30;5.63;;;;;;;-143.84;55.99;44965.28;5032906;28;20508;-78
2022/07/07 05:23:29;;;;;;;5.50;5.00;;;;;;;-143.84;55.69;44965.28;5033091;28;20446;-78
2022/07/07 05:25:57;;;;;;;5.03;4.63;;;;;;;-143.84;55.20;44948.16;5033021;28;20455;-77
2022/07/07 05:28:25;;;;;;;8.50;5.60;;;;;;;-143.84;54.52;44940.53;5032716;28;20482;-78
2022/07/07 05:30:52;;;;;;;5.00;4.60;;;;;;;-143.84;54.41;44953.88;5032660;28;20552;-78
2022/07/07 05:33:20;;;;;;;7.53;4.30;;;;;;;-143.84;54.02;44946.25;5033148;28;20516;-78
2022/07/07 05:35:47;;;;;;;5.20;4.70;;;;;;;-143.84;52.49;44942.44;5042625;28;20964;-78
2022/07/07 05:38:14;;;;;;;6.07;5.20;;;;;;;-143.84;52.40;44932.91;5042894;28;20439;-78
2022/07/07 05:40:42;;;;;;;6.40;4.80;;;;;;;-143.84;51.77;44929.09;5043796;28;20936;-75
2022/07/07 05:43:10;;;;;;;9.23;4.23;;;;;;;-143.84;51.23;44946.25;5043035;28;20465;-78
2022/07/07 05:45:37;;;;;;;5.50;4.73;;;;;;;-143.84;49.84;44927.19;5032044;28;20450;-78
2022/07/07 05:48:06;;;;;;;7.17;4.40;;;;;;;-143.84;49.68;44904.34;5034804;28;21007;-85
2022/07/07 05:50:33;;;;;;;4.13;3.77;;;;;;;-143.84;48.98;44921.50;5037375;28;20442;-85
2022/07/07 05:53:00;;;;;;;7.00;4.70;;;;;;;-143.84;49.11;44917.69;5054209;28;20469;-78
2022/07/07 05:55:28;;;;;;;4.30;3.97;;;;;;;-143.84;48.56;44910.06;5050683;28;20485;-78
2022/07/07 05:57:57;;;;;;;6.03;4.33;;;;;;;-143.84;47.87;44917.69;5050780;28;20964;-77
2022/07/07 06:00:24;;;;;;;4.63;4.10;;;;;;;-143.84;46.75;44927.19;5047949;28;20498;-77
2022/07/07 06:02:52;;;;;;;16.00;4.90;;;;;;;-143.84;46.79;44900.53;5032471;28;20957;-77
2022/07/07 06:05:19;;;;;;;4.37;3.97;;;;;;;-143.84;46.29;44919.59;5031348;28;20502;-77
2022/07/07 06:07:47;;;;;;;9.17;4.50;;;;;;;-143.84;46.34;44944.34;5030954;28;20478;-78
2022/07/07 06:10:14;;;;;;;6.37;4.10;;;;;;;-143.84;46.70;44894.84;5032446;28;20435;-77
2022/07/07 06:12:41;;;;;;;4.30;3.70;;;;;;;-143.84;45.98;44917.69;5033442;28;20438;-76
2022/07/07 06:15:12;;;;;;;9.97;4.40;;;;;;;-143.84;46.06;44908.16;5035387;28;20856;-77
2022/07/07 06:17:39;;;;;;;7.33;3.90;;;;;;;-143.84;45.17;44892.94;5034076;28;20454;-75
2022/07/07 06:20:08;;;;;;;11.13;3.97;;;;;;;-143.84;44.39;44894.84;5033885;28;20423;-75
2022/07/07 06:23:05;;;;;;;5.00;4.10;;;;;;;-143.84;43.70;44887.22;5044183;28;20468;-81
2022/07/07 06:25:37;;;;;;;5.80;3.90;;;;;;;-143.84;44.10;44910.06;5046706;28;20516;-83
2022/07/07 06:28:05;;;;;;;10.40;4.47;;;;;;;-143.84;44.57;44875.78;5039809;28;20548;-78
2022/07/07 06:30:34;;;;;;;4.00;3.70;;;;;;;-143.84;43.33;44854.84;5051722;28;20441;-75
2022/07/07 06:33:01;;;;;;;5.23;4.00;;;;;;;-143.84;43.64;44847.22;5062157;28;20488;-75
2022/07/07 06:35:29;;;;;;;8.80;4.00;;;;;;;-143.84;43.05;44896.75;5049929;28;20943;-75
2022/07/07 06:37:57;;;;;;;4.50;4.10;;;;;;;-143.84;42.22;44889.13;5050766;28;20437;-81
2022/07/07 06:40:24;;;;;;;4.40;4.00;;;;;;;-143.84;42.91;44862.47;5053069;28;20430;-81
2022/07/07 06:42:55;;;;;;;6.63;4.20;;;;;;;-143.84;42.42;44881.50;5053264;28;20432;-81
2022/07/07 06:45:24;;;;;;;4.00;3.80;;;;;;;-143.84;42.64;44866.28;5050105;28;20981;-75
2022/07/07 06:47:53;;;;;;;7.43;3.80;;;;;;;-143.84;41.72;44854.84;5050606;28;20999;-75
2022/07/07 06:50:21;;;;;;;5.00;3.70;;;;;;;-143.84;41.65;44837.72;5067697;28;20457;-75
2022/07/07 06:52:48;;;;;;;4.53;3.67;;;;;;;-143.84;41.19;44847.22;5069992;28;20453;-75
2022/07/07 06:55:15;;;;;;;5.80;4.00;;;;;;;-143.84;40.66;44839.63;5069849;28;20474;-75
2022/07/07 06:57:42;;;;;;;8.43;3.60;;;;;;;-143.84;40.16;44828.19;5067529;28;20495;-75
2022/07/07 07:00:11;;;;;;;5.10;3.37;;;;;;;-143.84;40.29;44851.03;5042111;28;20545;-75
2022/07/07 07:02:43;;;;;;;9.73;3.70;;;;;;;-143.84;40.12;44860.56;5050345;28;20446;-75
2022/07/07 07:05:14;;;;;;;3.70;3.50;;;;;;;-143.84;40.39;44851.03;5050162;28;20947;-75
2022/07/07 07:07:41;;;;;;;5.13;3.50;;;;;;;-143.84;39.92;44845.31;5049661;28;20493;-75
2022/07/07 07:10:10;;;;;;;3.90;3.40;;;;;;;-143.84;39.96;44824.38;5061460;28;20433;-75
2022/07/07 07:12:38;;;;;;;4.97;3.43;;;;;;;-143.84;38.91;44826.28;5070557;28;21424;-75
2022/07/07 07:15:07;;;;;;;6.93;3.73;;;;;;;-143.84;39.19;44832.00;5043888;28;20439;-75
2022/07/07 07:17:34;;;;;;;15.30;3.93;;;;;;;-143.84;40.49;44841.53;5059794;28;20955;-77
2022/07/07 07:20:01;;;;;;;7.13;3.80;;;;;;;-143.84;39.29;44809.16;5060173;28;20446;-76
2022/07/07 07:22:36;;;;;;;4.77;4.17;;;;;;;-143.84;39.10;44832.00;5056263;28;20429;-76
2022/07/07 07:25:03;;;;;;;3.57;2.90;;;;;;;-143.84;38.48;44807.25;5060223;28;20440;-76
2022/07/07 07:27:30;;;;;;;8.10;4.10;;;;;;;-143.84;38.71;44795.81;5057668;28;20471;-76
2022/07/07 07:29:58;;;;;;;5.67;3.53;;;;;;;-143.84;37.67;44851.03;5059988;28;20460;-76
2022/07/07 07:32:25;;;;;;;16.23;3.80;;;;;;;-143.84;38.24;44805.34;5066486;28;20468;-76
2022/07/07 07:34:52;;;;;;;19.97;3.60;;;;;;;-143.84;38.36;44803.44;5069645;28;20436;-76
2022/07/07 07:37:19;;;;;;;4.20;3.90;;;;;;;-143.84;38.12;44818.66;5063076;28;20434;-79
2022/07/07 07:39:48;;;;;;;5.63;4.30;;;;;;;-143.84;38.04;44835.81;5060605;28;20563;-76
2022/07/07 07:42:15;;;;;;;8.00;3.33;;;;;;;-143.84;37.51;44828.19;5059302;28;20443;-77
2022/07/07 07:47:26;;;;;;;6.03;3.20;;;;;;;-143.84;38.32;44811.06;5071588;28;20564;-76
2022/07/07 07:49:53;;;;;;;3.47;3.07;;;;;;;-143.84;37.66;44774.88;5072204;28;20924;-76
2022/07/07 07:52:20;;;;;;;7.53;3.77;;;;;;;-143.84;36.68;44801.53;5070568;28;20951;-76
2022/07/07 07:54:49;;;;;;;4.10;3.70;;;;;;;-143.84;36.38;44793.91;5070292;28;20652;-76
2022/07/07 07:57:16;;;;;;;12.63;3.83;;;;;;;-143.84;36.43;44793.91;5071124;28;20449;-75
2022/07/07 07:59:43;;;;;;;7.67;3.33;;;;;;;-143.84;37.47;44841.53;5071818;28;20838;-75
2022/07/07 08:02:11;;;;;;;3.40;3.10;;;;;;;-143.84;37.53;44797.72;5063866;28;20563;-76
2022/07/07 08:04:38;;;;;;;16.30;3.30;;;;;;;-143.84;36.78;44782.50;5057729;28;20449;-74
2022/07/07 08:07:06;;;;;;;4.50;3.47;;;;;;;-143.84;36.15;44793.91;5066794;28;20437;-75
2022/07/07 08:09:33;;;;;;;3.87;3.57;;;;;;;-143.84;35.77;44816.78;5068704;28;20472;-75
2022/07/07 08:12:01;;;;;;;9.97;2.90;;;;;;;-143.84;36.47;44811.06;5068836;28;20435;-75
2022/07/07 08:14:31;;;;;;;8.50;3.70;;;;;;;-143.84;36.65;44790.13;5052847;28;20457;-76
2022/07/07 08:16:58;;;;;;;3.63;3.33;;;;;;;-143.84;35.75;44795.81;5048374;28;20442;-75
2022/07/07 08:19:25;;;;;;;3.97;3.67;;;;;;;-143.84;36.41;44793.91;5048127;28;20453;-76
2022/07/07 08:21:53;;;;;;;7.83;3.30;;;;;;;-143.84;35.79;44780.59;5050056;28;20430;-75
2022/07/07 08:24:20;;;;;;;4.27;3.30;;;;;;;-143.84;36.46;44767.25;5050690;28;20434;-75
2022/07/07 08:26:48;;;;;;;12.77;3.60;;;;;;;-143.84;36.56;44771.06;5050131;28;20430;-75
2022/07/07 08:29:16;;;;;;;3.90;3.40;;;;;;;-143.84;36.88;44782.50;5050343;28;20515;-75
2022/07/07 08:31:43;;;;;;;8.50;4.10;;;;;;;-143.84;37.10;44778.69;5050352;28;20484;-75
2022/07/07 08:34:11;;;;;;;4.80;3.87;;;;;;;-143.84;37.16;44778.69;5050387;28;20438;-75
2022/07/07 08:36:38;;;;;;;5.27;3.50;;;;;;;-143.84;36.54;44782.50;5062824;28;20521;-75
2022/07/07 08:39:06;;;;;;;3.80;3.00;;;;;;;-143.84;37.46;44784.41;5070226;28;20445;-75
2022/07/07 08:41:34;;;;;;;7.47;3.37;;;;;;;-143.84;37.24;44769.16;5069782;28;20445;-75
2022/07/07 08:44:02;;;;;;;8.20;3.70;;;;;;;-143.84;36.21;44782.50;5070126;28;20428;-75
2022/07/07 08:46:31;;;;;;;4.10;3.70;;;;;;;-143.84;36.53;44795.81;5069624;28;20443;-75
2022/07/07 08:48:58;;;;;;;4.10;3.80;;;;;;;-143.84;37.94;44793.91;5069292;28;20477;-76
2022/07/07 08:51:26;;;;;;;6.60;4.00;;;;;;;-143.84;36.74;44748.22;5069821;28;20437;-75
2022/07/07 08:53:54;;;;;;;4.17;3.10;;;;;;;-143.84;36.56;44809.16;5065784;28;20993;-75
2022/07/07 08:56:23;;;;;;;12.63;3.67;;;;;;;-143.84;37.07;44799.63;5049565;28;20819;-75
2022/07/07 08:58:51;;;;;;;4.23;3.80;;;;;;;-143.84;39.29;44790.13;5049765;28;20507;-75
2022/07/07 09:01:19;;;;;;;8.10;3.17;;;;;;;-143.84;38.36;44809.16;5050067;28;20519;-75
2022/07/07 09:03:47;;;;;;;6.90;3.50;;;;;;;-143.84;36.68;44803.44;5049343;28;20445;-75
2022/07/07 09:06:16;;;;;;;4.00;3.40;;;;;;;-143.84;36.41;44786.31;5049398;28;20849;-75
2022/07/07 09:08:43;;;;;;;4.43;4.03;;;;;;;-143.84;37.12;44790.13;5056418;28;20473;-75
2022/07/07 09:11:10;;;;;;;4.03;3.60;;;;;;;-143.84;37.90;44837.72;5049456;28;20429;-75
2022/07/07 09:13:38;;;;;;;8.90;3.50;;;;;;;-143.84;38.63;44774.88;5050005;28;21034;-80
2022/07/07 09:16:15;;;;;;;29.13;7.50;;;;;;;-143.84;38.72;44793.91;5051653;28;20454;-81
2022/07/07 09:18:45;;;;;;;9.90;4.67;;;;;;;-143.84;38.83;44792.00;5054094;28;20522;-80
2022/07/07 09:21:28;;;;;;;12.83;5.23;;;;;;;-143.84;38.47;44769.16;5063352;28;20446;-80
2022/07/07 09:23:56;;;;;;;13.10;4.73;;;;;;;-143.84;37.22;44809.16;5068062;28;20456;-81
2022/07/07 09:26:38;;;;;;;13.80;4.20;;;;;;;-143.84;36.83;44790.13;5066719;28;20444;-81
2022/07/07 09:29:07;;;;;;;266.27;16.90;;;;;;;-143.84;35.96;44826.28;5071021;28;20464;-81
2022/07/07 09:31:58;;;;;;;22.60;4.20;;;;;;;-143.84;36.93;44792.00;5072579;28;20476;-81
2022/07/07 09:34:27;;;;;;;3.50;3.20;;;;;;;-143.84;37.22;44820.56;5074360;28;20520;-81
2022/07/07 09:39:43;;;;;;;8.13;3.20;;;;;;;-143.84;37.58;44795.81;5073668;28;20486;-81
2022/07/07 09:42:21;;;;;;;6.23;3.20;;;;;;;-143.84;36.97;44771.06;5073791;28;20425;-81
2022/07/07 09:44:51;;;;;;;10.60;3.17;;;;;;;-143.84;36.66;44780.59;5072949;28;20448;-81
2022/07/07 09:47:21;;;;;;;13.63;4.00;;;;;;;-143.84;37.16;44784.41;5069017;28;20465;-81
2022/07/07 09:50:06;;;;;;;6.90;3.37;;;;;;;-143.84;36.64;44744.41;5065142;28;20476;-81
2022/07/07 09:52:36;;;;;;;5.40;3.23;;;;;;;-143.84;35.00;44750.13;5059736;28;20982;-81
2022/07/07 09:55:09;;;;;;;3.90;3.60;;;;;;;-143.84;34.77;44755.84;5057232;28;20426;-81
2022/07/07 09:57:36;;;;;;;4.30;3.50;;;;;;;-143.84;34.92;44782.50;5070060;28;20451;-81
2022/07/07 10:00:04;;;;;;;3.30;3.00;;;;;;;-143.84;35.91;44757.75;5074139;28;20452;-81
2022/07/07 10:02:31;;;;;;;7.97;3.57;;;;;;;-143.84;35.21;44782.50;5074502;28;20452;-81
2022/07/07 10:05:01;;;;;;;17.03;3.20;;;;;;;-143.84;34.66;44765.34;5073470;28;20440;-81
2022/07/07 10:07:30;;;;;;;8.60;3.67;;;;;;;-143.84;34.22;44790.13;5072922;28;20429;-81
2022/07/07 10:10:03;;;;;;;4.43;3.30;;;;;;;-143.84;35.05;44792.00;5072344;28;21039;-81
2022/07/07 10:12:31;;;;;;;6.43;3.23;;;;;;;-143.84;36.19;44822.47;5072978;28;21017;-81
2022/07/07 10:15:01;;;;;;;10.60;3.50;;;;;;;-143.84;35.38;44795.81;5072933;28;20448;-81
2022/07/07 10:17:29;;;;;;;9.07;4.10;;;;;;;-143.84;36.28;44801.53;5072231;28;20478;-81
2022/07/07 10:19:56;;;;;;;3.40;3.10;;;;;;;-143.84;36.60;44774.88;5072481;28;20827;-81
2022/07/07 10:22:27;;;;;;;3.83;2.77;;;;;;;-143.84;35.71;44778.69;5063862;28;20456;-81
2022/07/07 10:24:55;;;;;;;5.03;2.90;;;;;;;-143.84;35.65;44797.72;5071139;28;20856;-81
2022/07/07 10:27:25;;;;;;;14.37;3.53;;;;;;;-143.84;35.21;44805.34;5073173;28;20437;-81
2022/07/07 10:29:54;;;;;;;4.70;3.07;;;;;;;-143.84;35.95;44797.72;5073123;28;20982;-80
2022/07/07 10:32:31;;;;;;;3.87;3.60;;;;;;;-143.84;35.79;44778.69;5072592;28;20553;-82
2022/07/07 10:35:00;;;;;;;4.07;3.50;;;;;;;-143.84;36.34;44839.63;5071216;28;20440;-81
2022/07/07 10:37:28;;;;;;;4.00;3.40;;;;;;;-143.84;36.39;44845.31;5072407;28;20448;-83
2022/07/07 10:39:58;;;;;;;8.33;3.47;;;;;;;-143.84;37.31;44835.81;5061488;28;20536;-82
2022/07/07 10:42:54;;;;;;;5.33;3.03;;;;;;;-143.84;37.66;44835.81;5052208;28;20430;-81
2022/07/07 10:45:22;;;;;;;9.67;3.30;;;;;;;-143.84;37.20;44856.75;5055514;28;21150;-81
2022/07/07 10:47:50;;;;;;;8.83;3.50;;;;;;;-143.84;38.21;44856.75;5054358;28;20441;-81
2022/07/07 10:50:28;;;;;;;4.07;3.77;;;;;;;-143.84;37.23;44843.44;5053762;28;20473;-81
2022/07/07 10:52:56;;;;;;;16.07;4.00;;;;;;;-143.84;38.86;44852.94;5055445;28;20448;-81
2022/07/07 10:55:51;;;;;;;10.63;3.17;;;;;;;-143.84;39.32;44864.38;5057999;28;20816;-81
2022/07/07 10:58:51;;;;;;;3.80;3.50;;;;;;;-143.84;39.32;44862.47;5052715;28;20449;-81
2022/07/07 11:01:20;;;;;;;4.50;3.67;;;;;;;-143.84;39.85;44835.81;5055517;28;20434;-81
2022/07/07 11:03:47;;;;;;;4.07;3.77;;;;;;;-143.84;40.48;44889.13;5054682;28;20445;-80
2022/07/07 11:06:14;;;;;;;10.87;3.87;;;;;;;-143.84;41.20;44856.75;5072567;28;20483;-80
2022/07/07 11:08:41;;;;;;;3.53;3.33;;;;;;;-143.84;41.82;44879.59;5071908;28;21063;-81
2022/07/07 11:11:09;;;;;;;7.60;4.23;;;;;;;-143.84;42.01;44873.88;5072179;28;20495;-81
2022/07/07 11:13:37;;;;;;;12.70;4.30;;;;;;;-143.84;42.46;44885.31;5071702;28;20463;-81
2022/07/07 11:16:14;;;;;;;9.63;3.93;;;;;;;-143.84;41.35;44887.22;5072690;28;20431;-80
2022/07/07 11:18:44;;;;;;;8.03;3.80;;;;;;;-143.84;41.68;44896.75;5072256;28;20467;-81
2022/07/07 11:21:11;;;;;;;10.03;4.37;;;;;;;-143.84;42.62;44896.75;5072077;28;20432;-81
2022/07/07 11:23:48;;;;;;;9.67;3.60;;;;;;;-143.84;42.54;44862.47;5072641;28;20863;-81
2022/07/07 11:26:17;;;;;;;9.87;4.10;;;;;;;-143.84;43.01;44889.13;5072747;28;20473;-81
2022/07/07 11:28:45;;;;;;;5.30;3.73;;;;;;;-143.84;43.06;44881.50;5073763;28;20553;-81